sensor_id;sensor_type;location;lat;lon;timestamp;pressure;altitude;pressure_sealevel;temperature;humidity
49178;BME280;35016;55.674;37.468;2023-02-14T00:00:33;97844.25;;;1.31;73.40
49178;BME280;35016;55.674;37.468;2023-02-14T00:03:00;97850.38;;;1.32;73.68
49178;BME280;35016;55.674;37.468;2023-02-14T00:05:27;97848.78;;;1.31;73.27
49178;BME280;35016;55.674;37.468;2023-02-14T00:07:53;97862.59;;;1.28;73.49
49178;BME280;35016;55.674;37.468;2023-02-14T00:10:20;97842.53;;;1.25;73.36
49178;BME280;35016;55.674;37.468;2023-02-14T00:12:47;97847.31;;;1.23;73.75
49178;BME280;35016;55.674;37.468;2023-02-14T00:15:14;97860.91;;;1.21;73.49
49178;BME280;35016;55.674;37.468;2023-02-14T00:17:51;97846.97;;;1.19;73.89
49178;BME280;35016;55.674;37.468;2023-02-14T00:20:20;97844.31;;;1.19;73.60
49178;BME280;35016;55.674;37.468;2023-02-14T00:22:48;97848.03;;;1.18;73.77
49178;BME280;35016;55.674;37.468;2023-02-14T00:25:14;97854.41;;;1.17;73.69
49178;BME280;35016;55.674;37.468;2023-02-14T00:27:41;97851.41;;;1.14;74.16
49178;BME280;35016;55.674;37.468;2023-02-14T00:30:09;97854.06;;;1.14;73.47
49178;BME280;35016;55.674;37.468;2023-02-14T00:32:37;97862.06;;;1.14;73.70
49178;BME280;35016;55.674;37.468;2023-02-14T00:35:05;97851.41;;;1.14;73.60
49178;BME280;35016;55.674;37.468;2023-02-14T00:37:32;97854.31;;;1.12;73.99
49178;BME280;35016;55.674;37.468;2023-02-14T00:39:59;97858.84;;;1.12;73.58
49178;BME280;35016;55.674;37.468;2023-02-14T00:42:26;97859.88;;;1.11;73.94
49178;BME280;35016;55.674;37.468;2023-02-14T00:44:53;97859.63;;;1.12;73.61
49178;BME280;35016;55.674;37.468;2023-02-14T00:47:20;97866.03;;;1.11;73.57
49178;BME280;35016;55.674;37.468;2023-02-14T00:49:46;97871.03;;;1.08;73.89
49178;BME280;35016;55.674;37.468;2023-02-14T00:52:13;97865.38;;;1.04;74.14
49178;BME280;35016;55.674;37.468;2023-02-14T00:54:40;97884.88;;;1.05;73.75
49178;BME280;35016;55.674;37.468;2023-02-14T00:57:07;97884.88;;;1.05;74.41
49178;BME280;35016;55.674;37.468;2023-02-14T00:59:34;97876.28;;;1.03;74.18
49178;BME280;35016;55.674;37.468;2023-02-14T01:02:02;97872.00;;;1.02;74.16
49178;BME280;35016;55.674;37.468;2023-02-14T01:04:29;97887.78;;;1.03;73.92
49178;BME280;35016;55.674;37.468;2023-02-14T01:06:56;97882.19;;;1.05;73.96
49178;BME280;35016;55.674;37.468;2023-02-14T01:09:23;97881.94;;;1.06;74.17
49178;BME280;35016;55.674;37.468;2023-02-14T01:11:49;97872.91;;;1.07;74.31
49178;BME280;35016;55.674;37.468;2023-02-14T01:14:16;97881.16;;;1.06;73.74
49178;BME280;35016;55.674;37.468;2023-02-14T01:16:43;97868.59;;;1.06;73.93
49178;BME280;35016;55.674;37.468;2023-02-14T01:22:15;97886.47;;;1.06;73.80
49178;BME280;35016;55.674;37.468;2023-02-14T01:24:42;97868.03;;;1.04;74.28
49178;BME280;35016;55.674;37.468;2023-02-14T01:27:09;97895.78;;;1.03;74.12
49178;BME280;35016;55.674;37.468;2023-02-14T01:29:36;97871.75;;;1.03;73.78
49178;BME280;35016;55.674;37.468;2023-02-14T01:32:02;97884.28;;;1.03;74.27
49178;BME280;35016;55.674;37.468;2023-02-14T01:34:30;97879.19;;;1.01;73.99
49178;BME280;35016;55.674;37.468;2023-02-14T01:36:56;97884.78;;;1.00;73.65
49178;BME280;35016;55.674;37.468;2023-02-14T01:39:23;97886.63;;;0.99;73.62
49178;BME280;35016;55.674;37.468;2023-02-14T01:41:50;97916.78;;;1.00;73.93
49178;BME280;35016;55.674;37.468;2023-02-14T01:46:52;97889.28;;;0.99;74.01
49178;BME280;35016;55.674;37.468;2023-02-14T01:49:21;97891.97;;;0.99;73.83
49178;BME280;35016;55.674;37.468;2023-02-14T01:52:13;97894.63;;;0.99;73.78
49178;BME280;35016;55.674;37.468;2023-02-14T01:54:39;97886.38;;;1.01;73.51
49178;BME280;35016;55.674;37.468;2023-02-14T01:57:08;97890.91;;;1.00;73.78
49178;BME280;35016;55.674;37.468;2023-02-14T01:59:39;97900.22;;;0.98;73.75
49178;BME280;35016;55.674;37.468;2023-02-14T02:02:07;97893.81;;;0.99;74.08
49178;BME280;35016;55.674;37.468;2023-02-14T02:04:36;97895.69;;;0.98;74.02
49178;BME280;35016;55.674;37.468;2023-02-14T02:07:05;97890.09;;;1.00;73.54
49178;BME280;35016;55.674;37.468;2023-02-14T02:09:38;97895.78;;;1.03;74.08
49178;BME280;35016;55.674;37.468;2023-02-14T02:12:08;97905.72;;;1.08;73.94
49178;BME280;35016;55.674;37.468;2023-02-14T02:14:35;97904.78;;;1.14;74.17
49178;BME280;35016;55.674;37.468;2023-02-14T02:19:40;97905.72;;;1.19;73.60
49178;BME280;35016;55.674;37.468;2023-02-14T02:22:31;97910.25;;;1.19;74.01
49178;BME280;35016;55.674;37.468;2023-02-14T02:41:21;97922.66;;;1.13;74.01
49178;BME280;35016;55.674;37.468;2023-02-14T02:43:58;97911.41;;;1.11;74.00
49178;BME280;35016;55.674;37.468;2023-02-14T02:46:39;97914.06;;;1.11;74.04
49178;BME280;35016;55.674;37.468;2023-02-14T02:57:50;97917.47;;;1.07;73.85
49178;BME280;35016;55.674;37.468;2023-02-14T03:00:20;97918.19;;;1.02;73.83
49178;BME280;35016;55.674;37.468;2023-02-14T03:02:48;97932.00;;;0.99;74.12
49178;BME280;35016;55.674;37.468;2023-02-14T03:05:35;97915.88;;;0.94;74.23
49178;BME280;35016;55.674;37.468;2023-02-14T03:08:03;97923.09;;;0.93;74.31
49178;BME280;35016;55.674;37.468;2023-02-14T03:10:31;97913.22;;;0.94;74.11
49178;BME280;35016;55.674;37.468;2023-02-14T03:13:04;97926.56;;;0.94;74.05
49178;BME280;35016;55.674;37.468;2023-02-14T03:23:18;97926.91;;;0.98;74.73
49178;BME280;35016;55.674;37.468;2023-02-14T03:28:36;97928.19;;;0.95;74.39
49178;BME280;35016;55.674;37.468;2023-02-14T03:31:23;97925.50;;;0.95;74.70
49178;BME280;35016;55.674;37.468;2023-02-14T03:34:07;97928.19;;;0.95;74.67
49178;BME280;35016;55.674;37.468;2023-02-14T03:36:38;97930.63;;;0.97;74.65
49178;BME280;35016;55.674;37.468;2023-02-14T03:39:12;97939.66;;;0.96;74.52
49178;BME280;35016;55.674;37.468;2023-02-14T03:41:44;97927.38;;;0.95;74.94
49178;BME280;35016;55.674;37.468;2023-02-14T03:44:12;97935.13;;;0.96;74.97
49178;BME280;35016;55.674;37.468;2023-02-14T03:46:50;97946.88;;;0.95;74.65
49178;BME280;35016;55.674;37.468;2023-02-14T03:49:20;97940.38;;;0.91;75.10
49178;BME280;35016;55.674;37.468;2023-02-14T03:51:49;97933.66;;;0.88;74.60
49178;BME280;35016;55.674;37.468;2023-02-14T03:54:17;97943.53;;;0.88;74.79
49178;BME280;35016;55.674;37.468;2023-02-14T03:56:46;97939.81;;;0.89;75.00
49178;BME280;35016;55.674;37.468;2023-02-14T03:59:22;97945.38;;;0.87;74.62
49178;BME280;35016;55.674;37.468;2023-02-14T04:04:21;97943.53;;;0.88;74.34
49178;BME280;35016;55.674;37.468;2023-02-14T04:06:49;97954.41;;;0.86;74.63
49178;BME280;35016;55.674;37.468;2023-02-14T04:09:16;97943.16;;;0.84;74.68
49178;BME280;35016;55.674;37.468;2023-02-14T04:11:43;97946.53;;;0.80;74.98
49178;BME280;35016;55.674;37.468;2023-02-14T04:14:12;97942.47;;;0.77;74.54
49178;BME280;35016;55.674;37.468;2023-02-14T04:16:39;97947.00;;;0.77;75.04
49178;BME280;35016;55.674;37.468;2023-02-14T04:19:25;97954.19;;;0.76;74.85
49178;BME280;35016;55.674;37.468;2023-02-14T04:21:52;97957.09;;;0.75;74.97
49178;BME280;35016;55.674;37.468;2023-02-14T04:24:19;97956.06;;;0.76;74.76
49178;BME280;35016;55.674;37.468;2023-02-14T04:26:46;97955.25;;;0.75;74.87
49178;BME280;35016;55.674;37.468;2023-02-14T04:29:31;97952.34;;;0.77;74.84
49178;BME280;35016;55.674;37.468;2023-02-14T04:31:58;97969.72;;;0.79;74.88
49178;BME280;35016;55.674;37.468;2023-02-14T04:34:25;97970.06;;;0.83;75.15
49178;BME280;35016;55.674;37.468;2023-02-14T04:36:52;97980.28;;;0.86;75.53
49178;BME280;35016;55.674;37.468;2023-02-14T04:39:19;97995.72;;;0.84;75.48
49178;BME280;35016;55.674;37.468;2023-02-14T04:41:46;97997.78;;;0.82;75.64
49178;BME280;35016;55.674;37.468;2023-02-14T04:44:13;98000.69;;;0.80;75.92
49178;BME280;35016;55.674;37.468;2023-02-14T04:46:40;97996.66;;;0.78;75.85
49178;BME280;35016;55.674;37.468;2023-02-14T04:49:10;98005.94;;;0.75;75.56
49178;BME280;35016;55.674;37.468;2023-02-14T04:51:37;98007.78;;;0.75;75.71
49178;BME280;35016;55.674;37.468;2023-02-14T04:54:03;98007.56;;;0.76;75.90
49178;BME280;35016;55.674;37.468;2023-02-14T04:56:34;98001.97;;;0.78;75.44
49178;BME280;35016;55.674;37.468;2023-02-14T04:59:09;98010.09;;;0.83;75.58
49178;BME280;35016;55.674;37.468;2023-02-14T05:01:35;98011.72;;;0.84;74.97
49178;BME280;35016;55.674;37.468;2023-02-14T05:04:02;98030.75;;;0.87;75.53
49178;BME280;35016;55.674;37.468;2023-02-14T05:06:29;98018.00;;;0.89;75.39
49178;BME280;35016;55.674;37.468;2023-02-14T05:11:49;98035.63;;;0.90;75.23
49178;BME280;35016;55.674;37.468;2023-02-14T05:14:16;98035.63;;;0.90;74.72
49178;BME280;35016;55.674;37.468;2023-02-14T05:16:42;98030.28;;;0.90;74.98
49178;BME280;35016;55.674;37.468;2023-02-14T05:19:09;98041.19;;;0.89;74.63
49178;BME280;35016;55.674;37.468;2023-02-14T05:21:46;98033.44;;;0.87;74.83
49178;BME280;35016;55.674;37.468;2023-02-14T05:24:12;98055.59;;;0.88;74.30
49178;BME280;35016;55.674;37.468;2023-02-14T05:26:39;98043.28;;;0.87;74.50
49178;BME280;35016;55.674;37.468;2023-02-14T05:29:06;98052.13;;;0.87;74.00
49178;BME280;35016;55.674;37.468;2023-02-14T05:31:33;98060.94;;;0.88;74.44
49178;BME280;35016;55.674;37.468;2023-02-14T05:34:04;98045.50;;;0.90;74.36
49178;BME280;35016;55.674;37.468;2023-02-14T05:36:33;98049.56;;;0.92;74.50
49178;BME280;35016;55.674;37.468;2023-02-14T05:39:09;98056.84;;;0.97;74.41
49178;BME280;35016;55.674;37.468;2023-02-14T05:41:53;98053.47;;;1.02;74.68
49178;BME280;35016;55.674;37.468;2023-02-14T05:44:20;98051.97;;;1.06;74.76
49178;BME280;35016;55.674;37.468;2023-02-14T05:46:47;98061.34;;;1.08;74.49
49178;BME280;35016;55.674;37.468;2023-02-14T05:49:14;98064.59;;;1.10;74.23
49178;BME280;35016;55.674;37.468;2023-02-14T05:51:41;98066.22;;;1.11;74.31
49178;BME280;35016;55.674;37.468;2023-02-14T05:54:08;98064.13;;;1.13;74.59
49178;BME280;35016;55.674;37.468;2023-02-14T05:56:36;98055.31;;;1.13;74.27
49178;BME280;35016;55.674;37.468;2023-02-14T05:59:03;98057.16;;;1.12;74.11
49178;BME280;35016;55.674;37.468;2023-02-14T06:01:30;98053.94;;;1.10;74.00
49178;BME280;35016;55.674;37.468;2023-02-14T06:03:57;98059.25;;;1.10;74.16
49178;BME280;35016;55.674;37.468;2023-02-14T06:06:24;98070.75;;;1.11;74.23
49178;BME280;35016;55.674;37.468;2023-02-14T06:08:51;98062.50;;;1.12;74.60
49178;BME280;35016;55.674;37.468;2023-02-14T06:11:18;98062.03;;;1.15;74.17
49178;BME280;35016;55.674;37.468;2023-02-14T06:13:44;98063.47;;;1.18;74.01
49178;BME280;35016;55.674;37.468;2023-02-14T06:16:11;98059.50;;;1.20;74.28
49178;BME280;35016;55.674;37.468;2023-02-14T06:18:38;98053.69;;;1.23;74.25
49178;BME280;35016;55.674;37.468;2023-02-14T06:21:05;98061.81;;;1.29;74.76
49178;BME280;35016;55.674;37.468;2023-02-14T06:23:32;98053.91;;;1.34;74.26
49178;BME280;35016;55.674;37.468;2023-02-14T06:25:58;98071.06;;;1.38;74.46
49178;BME280;35016;55.674;37.468;2023-02-14T06:28:25;98059.09;;;1.40;74.28
49178;BME280;35016;55.674;37.468;2023-02-14T06:30:52;98057.25;;;1.41;74.30
49178;BME280;35016;55.674;37.468;2023-02-14T06:33:19;98060.47;;;1.43;74.75
49178;BME280;35016;55.674;37.468;2023-02-14T06:35:46;98059.22;;;1.45;74.29
49178;BME280;35016;55.674;37.468;2023-02-14T06:38:12;98059.44;;;1.44;74.12
49178;BME280;35016;55.674;37.468;2023-02-14T06:40:39;98079.06;;;1.49;74.01
49178;BME280;35016;55.674;37.468;2023-02-14T06:43:06;98072.09;;;1.48;74.51
49178;BME280;35016;55.674;37.468;2023-02-14T06:45:33;98091.63;;;1.49;74.50
49178;BME280;35016;55.674;37.468;2023-02-14T06:48:00;98072.91;;;1.49;74.66
49178;BME280;35016;55.674;37.468;2023-02-14T06:50:27;98087.81;;;1.45;74.60
49178;BME280;35016;55.674;37.468;2023-02-14T06:52:54;98087.44;;;1.41;74.56
49178;BME280;35016;55.674;37.468;2023-02-14T06:55:21;98093.00;;;1.40;74.16
49178;BME280;35016;55.674;37.468;2023-02-14T06:57:48;98092.44;;;1.38;74.11
49178;BME280;35016;55.674;37.468;2023-02-14T07:00:14;98096.38;;;1.35;74.28
49178;BME280;35016;55.674;37.468;2023-02-14T07:02:42;98101.16;;;1.33;74.09
49178;BME280;35016;55.674;37.468;2023-02-14T07:05:09;98105.09;;;1.31;74.40
49178;BME280;35016;55.674;37.468;2023-02-14T07:07:35;98108.34;;;1.33;74.57
49178;BME280;35016;55.674;37.468;2023-02-14T07:10:03;98111.69;;;1.40;74.64
49178;BME280;35016;55.674;37.468;2023-02-14T07:12:29;98115.41;;;1.50;74.97
49178;BME280;35016;55.674;37.468;2023-02-14T07:14:56;98110.50;;;1.59;74.73
49178;BME280;35016;55.674;37.468;2023-02-14T07:17:23;98124.22;;;1.63;75.00
49178;BME280;35016;55.674;37.468;2023-02-14T07:19:50;98117.00;;;1.63;74.98
49178;BME280;35016;55.674;37.468;2023-02-14T07:22:17;98115.06;;;1.59;74.19
49178;BME280;35016;55.674;37.468;2023-02-14T07:24:44;98123.19;;;1.52;74.47
49178;BME280;35016;55.674;37.468;2023-02-14T07:27:11;98125.19;;;1.45;73.82
49178;BME280;35016;55.674;37.468;2023-02-14T07:29:38;98120.28;;;1.42;74.47
49178;BME280;35016;55.674;37.468;2023-02-14T07:32:05;98121.47;;;1.46;74.47
49178;BME280;35016;55.674;37.468;2023-02-14T07:34:32;98134.22;;;1.55;74.69
49178;BME280;35016;55.674;37.468;2023-02-14T07:36:59;98149.06;;;1.63;74.64
49178;BME280;35016;55.674;37.468;2023-02-14T07:39:26;98137.66;;;1.68;74.03
49178;BME280;35016;55.674;37.468;2023-02-14T07:41:53;98127.56;;;1.70;74.39
49178;BME280;35016;55.674;37.468;2023-02-14T07:44:25;98137.66;;;1.68;74.35
49178;BME280;35016;55.674;37.468;2023-02-14T07:46:52;98139.44;;;1.62;74.29
49178;BME280;35016;55.674;37.468;2023-02-14T07:49:18;98137.22;;;1.59;74.45
49178;BME280;35016;55.674;37.468;2023-02-14T07:51:45;98137.94;;;1.54;73.98
49178;BME280;35016;55.674;37.468;2023-02-14T07:54:12;98143.75;;;1.51;73.99
49178;BME280;35016;55.674;37.468;2023-02-14T07:56:39;98135.75;;;1.51;74.33
49178;BME280;35016;55.674;37.468;2023-02-14T07:59:06;98145.16;;;1.54;74.43
49178;BME280;35016;55.674;37.468;2023-02-14T08:01:33;98159.88;;;1.57;74.41
49178;BME280;35016;55.674;37.468;2023-02-14T08:04:00;98149.44;;;1.55;74.02
49178;BME280;35016;55.674;37.468;2023-02-14T08:06:28;98160.25;;;1.48;74.46
49178;BME280;35016;55.674;37.468;2023-02-14T08:08:55;98152.81;;;1.50;74.64
49178;BME280;35016;55.674;37.468;2023-02-14T08:11:22;98160.94;;;1.55;74.83
49178;BME280;35016;55.674;37.468;2023-02-14T08:14:08;98164.06;;;1.52;74.59
49178;BME280;35016;55.674;37.468;2023-02-14T08:16:35;98166.28;;;1.44;74.15
49178;BME280;35016;55.674;37.468;2023-02-14T08:19:05;98162.09;;;1.36;74.39
49178;BME280;35016;55.674;37.468;2023-02-14T08:21:32;98167.34;;;1.31;74.80
49178;BME280;35016;55.674;37.468;2023-02-14T08:24:00;98171.84;;;1.31;74.26
49178;BME280;35016;55.674;37.468;2023-02-14T08:26:30;98175.09;;;1.33;74.97
49178;BME280;35016;55.674;37.468;2023-02-14T08:28:58;98191.94;;;1.33;74.68
49178;BME280;35016;55.674;37.468;2023-02-14T08:31:28;98179.63;;;1.32;75.00
49178;BME280;35016;55.674;37.468;2023-02-14T08:34:02;98190.56;;;1.31;74.70
49178;BME280;35016;55.674;37.468;2023-02-14T08:36:30;98207.38;;;1.31;74.96
49178;BME280;35016;55.674;37.468;2023-02-14T08:38:57;98204.59;;;1.26;74.51
49178;BME280;35016;55.674;37.468;2023-02-14T08:41:24;98200.66;;;1.17;74.94
49178;BME280;35016;55.674;37.468;2023-02-14T08:43:51;98211.66;;;1.09;74.48
49178;BME280;35016;55.674;37.468;2023-02-14T08:46:19;98209.69;;;1.04;75.02
49178;BME280;35016;55.674;37.468;2023-02-14T08:48:47;98214.78;;;1.06;75.44
49178;BME280;35016;55.674;37.468;2023-02-14T08:51:15;98214.09;;;1.10;75.42
49178;BME280;35016;55.674;37.468;2023-02-14T08:53:42;98214.59;;;1.19;75.44
49178;BME280;35016;55.674;37.468;2023-02-14T08:56:10;98228.97;;;1.30;75.04
49178;BME280;35016;55.674;37.468;2023-02-14T08:58:39;98224.81;;;1.34;74.79
49178;BME280;35016;55.674;37.468;2023-02-14T09:01:07;98237.91;;;1.35;74.97
49178;BME280;35016;55.674;37.468;2023-02-14T09:03:34;98241.75;;;1.39;75.16
49178;BME280;35016;55.674;37.468;2023-02-14T09:06:04;98237.56;;;1.43;74.69
49178;BME280;35016;55.674;37.468;2023-02-14T09:08:31;98257.47;;;1.47;74.64
49178;BME280;35016;55.674;37.468;2023-02-14T09:11:14;98248.97;;;1.50;74.35
49178;BME280;35016;55.674;37.468;2023-02-14T09:13:41;98238.28;;;1.62;74.49
49178;BME280;35016;55.674;37.468;2023-02-14T09:16:09;98261.63;;;1.78;74.58
49178;BME280;35016;55.674;37.468;2023-02-14T09:18:37;98226.75;;;1.97;74.23
49178;BME280;35016;55.674;37.468;2023-02-14T09:21:07;98244.41;;;2.09;73.37
49178;BME280;35016;55.674;37.468;2023-02-14T09:23:35;98249.25;;;2.24;72.60
49178;BME280;35016;55.674;37.468;2023-02-14T09:26:04;98262.47;;;2.31;71.46
49178;BME280;35016;55.674;37.468;2023-02-14T09:28:31;98271.44;;;2.36;71.63
49178;BME280;35016;55.674;37.468;2023-02-14T09:30:58;98266.66;;;2.38;71.11
49178;BME280;35016;55.674;37.468;2023-02-14T09:33:33;98259.44;;;2.39;72.07
49178;BME280;35016;55.674;37.468;2023-02-14T09:36:00;98269.56;;;2.37;72.25
49178;BME280;35016;55.674;37.468;2023-02-14T09:38:46;98271.69;;;2.35;71.87
49178;BME280;35016;55.674;37.468;2023-02-14T09:44:02;98272.59;;;2.29;71.39
49178;BME280;35016;55.674;37.468;2023-02-14T09:46:34;98280.75;;;2.34;71.13
49178;BME280;35016;55.674;37.468;2023-02-14T09:49:02;98290.50;;;2.40;69.84
49178;BME280;35016;55.674;37.468;2023-02-14T09:51:29;98303.06;;;2.39;69.66
49178;BME280;35016;55.674;37.468;2023-02-14T09:54:20;98282.47;;;2.40;69.28
49178;BME280;35016;55.674;37.468;2023-02-14T09:59:30;98295.38;;;2.31;69.97
49178;BME280;35016;55.674;37.468;2023-02-14T10:02:08;98307.03;;;2.25;70.51
49178;BME280;35016;55.674;37.468;2023-02-14T10:04:44;98293.88;;;2.24;70.49
49178;BME280;35016;55.674;37.468;2023-02-14T10:12:29;98309.03;;;2.18;71.38
49178;BME280;35016;55.674;37.468;2023-02-14T10:14:58;98332.16;;;2.12;70.78
49178;BME280;35016;55.674;37.468;2023-02-14T10:20:02;98270.56;;;1.96;70.88
49178;BME280;35016;55.674;37.468;2023-02-14T10:22:39;98334.13;;;1.94;71.28
49178;BME280;35016;55.674;37.468;2023-02-14T10:25:29;98325.53;;;1.92;70.89
49178;BME280;35016;55.674;37.468;2023-02-14T10:27:55;98352.03;;;1.93;71.50
49178;BME280;35016;55.674;37.468;2023-02-14T10:30:23;98359.00;;;1.94;71.69
49178;BME280;35016;55.674;37.468;2023-02-14T10:33:14;98357.16;;;1.95;71.61
49178;BME280;35016;55.674;37.468;2023-02-14T10:35:54;98355.28;;;1.95;71.28
49178;BME280;35016;55.674;37.468;2023-02-14T10:44:18;98374.34;;;1.99;71.90
49178;BME280;35016;55.674;37.468;2023-02-14T10:47:00;98380.66;;;2.04;72.25
49178;BME280;35016;55.674;37.468;2023-02-14T10:49:42;98366.34;;;2.10;69.95
49178;BME280;35016;55.674;37.468;2023-02-14T10:52:17;98372.16;;;2.19;70.15
49178;BME280;35016;55.674;37.468;2023-02-14T10:55:00;98389.13;;;2.25;69.99
49178;BME280;35016;55.674;37.468;2023-02-14T10:57:32;98386.78;;;2.28;69.14
49178;BME280;35016;55.674;37.468;2023-02-14T11:02:36;98380.78;;;2.33;68.52
49178;BME280;35016;55.674;37.468;2023-02-14T11:05:05;98394.72;;;2.35;68.09
49178;BME280;35016;55.674;37.468;2023-02-14T11:07:33;98391.56;;;2.38;68.96
49178;BME280;35016;55.674;37.468;2023-02-14T11:10:00;98386.81;;;2.40;70.12
49178;BME280;35016;55.674;37.468;2023-02-14T11:12:38;98390.53;;;2.39;69.09
49178;BME280;35016;55.674;37.468;2023-02-14T11:15:19;98404.38;;;2.36;68.73
49178;BME280;35016;55.674;37.468;2023-02-14T11:17:46;98396.81;;;2.33;68.46
49178;BME280;35016;55.674;37.468;2023-02-14T11:22:44;98406.56;;;2.27;68.57
49178;BME280;35016;55.674;37.468;2023-02-14T11:25:19;98413.09;;;2.20;68.55
49178;BME280;35016;55.674;37.468;2023-02-14T11:27:47;98416.69;;;2.13;68.39
49178;BME280;35016;55.674;37.468;2023-02-14T11:30:17;98421.91;;;2.08;68.89
49178;BME280;35016;55.674;37.468;2023-02-14T11:32:48;98421.56;;;2.05;69.62
49178;BME280;35016;55.674;37.468;2023-02-14T11:35:19;98434.13;;;2.04;70.70
49178;BME280;35016;55.674;37.468;2023-02-14T11:37:50;98438.97;;;1.96;70.54
49178;BME280;35016;55.674;37.468;2023-02-14T11:40:28;98435.38;;;1.90;71.00
49178;BME280;35016;55.674;37.468;2023-02-14T11:43:00;98425.03;;;1.94;71.46
49178;BME280;35016;55.674;37.468;2023-02-14T11:45:46;98426.78;;;2.00;71.24
49178;BME280;35016;55.674;37.468;2023-02-14T11:48:26;98431.81;;;2.08;70.75
49178;BME280;35016;55.674;37.468;2023-02-14T11:51:08;98420.06;;;2.21;70.89
49178;BME280;35016;55.674;37.468;2023-02-14T11:53:58;98437.16;;;2.31;70.73
49178;BME280;35016;55.674;37.468;2023-02-14T11:56:41;98430.06;;;2.37;68.91
49178;BME280;35016;55.674;37.468;2023-02-14T11:59:09;98432.88;;;2.42;69.21
49178;BME280;35016;55.674;37.468;2023-02-14T12:01:38;98436.81;;;2.51;69.70
49178;BME280;35016;55.674;37.468;2023-02-14T12:04:05;98449.47;;;2.56;70.15
49178;BME280;35016;55.674;37.468;2023-02-14T12:06:37;98437.97;;;2.55;69.80
49178;BME280;35016;55.674;37.468;2023-02-14T12:11:53;98455.31;;;2.53;69.69
49178;BME280;35016;55.674;37.468;2023-02-14T12:14:22;98465.78;;;2.54;69.96
49178;BME280;35016;55.674;37.468;2023-02-14T12:17:24;98466.59;;;2.55;69.58
49178;BME280;35016;55.674;37.468;2023-02-14T12:19:50;98483.00;;;2.46;67.24
49178;BME280;35016;55.674;37.468;2023-02-14T12:22:28;98461.81;;;2.45;68.06
49178;BME280;35016;55.674;37.468;2023-02-14T12:25:08;98487.88;;;2.38;66.79
49178;BME280;35016;55.674;37.468;2023-02-14T12:27:44;98476.09;;;2.27;66.33
49178;BME280;35016;55.674;37.468;2023-02-14T12:30:13;98489.13;;;2.24;67.94
49178;BME280;35016;55.674;37.468;2023-02-14T12:32:49;98487.16;;;2.19;68.22
49178;BME280;35016;55.674;37.468;2023-02-14T12:35:21;98503.06;;;2.14;67.63
49178;BME280;35016;55.674;37.468;2023-02-14T12:53:31;98528.31;;;2.18;68.14
49178;BME280;35016;55.674;37.468;2023-02-14T13:01:19;98538.63;;;2.03;67.55
49178;BME280;35016;55.674;37.468;2023-02-14T13:09:29;98541.59;;;1.95;67.31
49178;BME280;35016;55.674;37.468;2023-02-14T13:12:06;98567.06;;;1.97;67.90
49178;BME280;35016;55.674;37.468;2023-02-14T13:22:34;98573.56;;;1.90;67.48
49178;BME280;35016;55.674;37.468;2023-02-14T13:25:03;98557.38;;;1.84;66.70
49178;BME280;35016;55.674;37.468;2023-02-14T13:27:33;98587.47;;;1.80;67.53
49178;BME280;35016;55.674;37.468;2023-02-14T13:30:04;98587.47;;;1.80;67.80
49178;BME280;35016;55.674;37.468;2023-02-14T13:32:38;98583.97;;;1.79;65.53
49178;BME280;35016;55.674;37.468;2023-02-14T13:35:06;98601.88;;;1.79;66.28
49178;BME280;35016;55.674;37.468;2023-02-14T13:37:34;98601.66;;;1.80;67.18
49178;BME280;35016;55.674;37.468;2023-02-14T13:40:07;98608.03;;;1.79;67.20
49178;BME280;35016;55.674;37.468;2023-02-14T13:48:33;98617.97;;;1.72;68.32
49178;BME280;35016;55.674;37.468;2023-02-14T13:51:08;98635.13;;;1.65;66.49
49178;BME280;35016;55.674;37.468;2023-02-14T14:04:04;98655.28;;;1.42;67.85
49178;BME280;35016;55.674;37.468;2023-02-14T14:22:56;98692.81;;;1.29;69.14
49178;BME280;35016;55.674;37.468;2023-02-14T14:25:41;98690.59;;;1.26;68.61
49178;BME280;35016;55.674;37.468;2023-02-14T14:28:20;98700.91;;;1.22;68.57
49178;BME280;35016;55.674;37.468;2023-02-14T14:30:49;98704.00;;;1.19;68.80
49178;BME280;35016;55.674;37.468;2023-02-14T14:33:28;98700.53;;;1.19;68.85
49178;BME280;35016;55.674;37.468;2023-02-14T14:36:01;98702.38;;;1.18;68.39
49178;BME280;35016;55.674;37.468;2023-02-14T14:38:32;98697.63;;;1.20;68.31
49178;BME280;35016;55.674;37.468;2023-02-14T14:40:59;98703.56;;;1.22;69.00
49178;BME280;35016;55.674;37.468;2023-02-14T14:43:28;98725.75;;;1.23;68.86
49178;BME280;35016;55.674;37.468;2023-02-14T14:45:58;98725.75;;;1.23;68.80
49178;BME280;35016;55.674;37.468;2023-02-14T14:48:30;98726.56;;;1.23;69.08
49178;BME280;35016;55.674;37.468;2023-02-14T14:50:59;98733.75;;;1.23;69.57
49178;BME280;35016;55.674;37.468;2023-02-14T14:56:10;98735.66;;;1.16;69.07
49178;BME280;35016;55.674;37.468;2023-02-14T14:58:40;98746.53;;;1.14;68.95
49178;BME280;35016;55.674;37.468;2023-02-14T15:01:12;98735.25;;;1.12;68.97
49178;BME280;35016;55.674;37.468;2023-02-14T15:03:45;98738.97;;;1.11;68.66
49178;BME280;35016;55.674;37.468;2023-02-14T15:08:39;98740.81;;;1.11;69.21
49178;BME280;35016;55.674;37.468;2023-02-14T15:13:42;98756.44;;;1.07;68.49
49178;BME280;35016;55.674;37.468;2023-02-14T15:16:21;98752.75;;;1.08;69.29
49178;BME280;35016;55.674;37.468;2023-02-14T15:18:50;98756.66;;;1.06;68.85
49178;BME280;35016;55.674;37.468;2023-02-14T15:21:18;98761.41;;;1.04;68.80
49178;BME280;35016;55.674;37.468;2023-02-14T15:23:45;98764.28;;;1.02;69.17
49178;BME280;35016;55.674;37.468;2023-02-14T15:26:16;98773.94;;;1.03;68.90
49178;BME280;35016;55.674;37.468;2023-02-14T15:28:52;98772.31;;;1.02;69.42
49178;BME280;35016;55.674;37.468;2023-02-14T15:31:20;98779.94;;;0.99;68.89
49178;BME280;35016;55.674;37.468;2023-02-14T15:33:52;98800.50;;;0.91;69.60
49178;BME280;35016;55.674;37.468;2023-02-14T15:36:33;98795.84;;;0.80;70.06
49178;BME280;35016;55.674;37.468;2023-02-14T15:39:05;98794.25;;;0.73;69.67
49178;BME280;35016;55.674;37.468;2023-02-14T15:41:34;98789.38;;;0.63;69.92
49178;BME280;35016;55.674;37.468;2023-02-14T15:44:01;98808.28;;;0.55;70.21
49178;BME280;35016;55.674;37.468;2023-02-14T15:46:34;98817.13;;;0.49;70.75